Little Torch Key, Florida
Current Conditions -  °F | °C
As of 4:53 AM on Saturday 25 Oct 2014 (Local Time) from KNQX Reporting Station
Scattered Clouds Scattered Clouds  
Wind Chill: 76°   Ceiling: Unl
Heat Index: 76°   Visibility: 10mi
Dew Point: 67°   Wind: 16mph
Humidity: 74%   Direction: 20°NNE
Pressure: 29.87"   Gusts: 24mph
Location:  24.6465°N, 81.5399°W
Report Text: KNQX 250853Z AUTO 02014G21KT 10SM SCT036 24/19 A2987 RMK AO2 SLP112 T02440194 55004 TSNO $
Loading
Personal Weather Stations






























Interactive Weather Map
Tropical Storm Tracking
New forecast layout! Learn more

10-Day Weather Forecast

Advertisements
Track Severe Weather on mobile